Newtown, CT

1:44 PM EST on February 10, 2016 (GMT -0500)
Southern Newtown | | Change Station
CLOSE
Current Station
Personal Weather Station
Location: Newtown, CT
Elevation: 465 ft
Nearby Weather Stations

Elev 465 ft 41.38 °N, 73.27 °W | Updated 16 seconds ago

Overcast
Overcast
36.1 °F
Feels Like 36 °F
N
2.0
Wind Variable Wind from WNW
Gusts 4.0 mph

Today
High -- | Low -- °F
--% Chance of Precip.
Yesterday
High -- | Low -- °F
Precip. -- in
Pressure 29.57 in
Visibility 10.0 miles
Clouds Mostly Cloudy 4400 ft
Mostly Cloudy 6500 ft
Windchill 36 °F
Dew Point 23 °F
Humidity 58%
Rainfall 0.02 in
Snow Depth Not available.
6:55 AM 5:20 PM
Waxing Crescent, 6% visible
METAR KDXR 101753Z 28007G16KT 250V310 10SM BKN044 BKN065 03/M07 A2956 RMK AO2 SLP014 60000 T00331072 10033 21017 58012
Pressure 29.57 in
Visibility 10.0 miles
Clouds Mostly Cloudy 4400 ft
Mostly Cloudy 6500 ft
Windchill 36 °F
Dew Point 23 °F
Humidity 58%
Rainfall 0.02 in
Snow Depth Not available.
6:55 AM 5:20 PM
Waxing Crescent, 6% visible
METAR KDXR 101753Z 28007G16KT 250V310 10SM BKN044 BKN065 03/M07 A2956 RMK AO2 SLP014 60000 T00331072 10033 21017 58012

10-Day Weather Forecast

Almanac

Astronomy

Feb. 10, 2016 Rise Set
Actual Time
Civil Twilight
Nautical Twilight
Astronomical Twilight
Moon
Length of Visible Light
Length of Day
Tomorrow will be .
, % of the Moon is Illuminated

Today's Extremes

State Highs State Lows

Community

WunderPhotos

Upload Photos

1,891,915 photos uploaded!

WunderBlog® & News

Nearby

Air Quality

  Air Quality AQ Index Pollutant
Not available.

Snow Depth

Station Depth Elevation

Earthquake Activity

City Distance Mag. Time & Date
Minimum magnitude displayed is 2.5.

Coastal Water Temperatures

Place Temperature

Stations

Nearby Weather Stations

Station Location Temp. Windchill Dew Point Humidity Wind Precip. Elev Updated Type
                   

Watches & Warnings

There are currently no watches in effect.